| time (UTC) | temp F | wind direction | speed knots | gust knots | rain 1hr in | rain 24hr in | rain mn in | humidity % | barometer mb |
| 20260510083006 | 63 | 323 | 0.0 | 0.9 | 0.00 | 0.00 | 0.00 | 77 | 1021.0 |
| 20260510081502 | 59 | 91 | 0.0 | 0.9 | 0.00 | 0.00 | 0.00 | 85 | 1020.8 |
| 20260510080002 | 59 | 76 | 0.0 | 0.0 | 0.00 | 0.00 | 0.00 | 87 | 1020.9 |
| 20260510074601 | 59 | 76 | 0.0 | 0.0 | 0.00 | 0.00 | 0.00 | 88 | 1020.8 |
| 20260510073107 | 59 | 76 | 0.0 | 0.0 | 0.00 | 0.00 | 0.00 | 87 | 1020.9 |
| 20260510071557 | 59 | 76 | 0.0 | 0.0 | 0.00 | 0.00 | 0.00 | 86 | 1020.9 |
| 20260510070054 | 59 | 76 | 0.0 | 0.0 | 0.00 | 0.00 | 0.00 | 86 | 1021.2 |
| 20260510064554 | 59 | 76 | 0.0 | 0.0 | 0.00 | 0.00 | 0.00 | 85 | 1021.4 |
| 20260510063052 | 60 | 76 | 0.0 | 0.0 | 0.00 | 0.00 | 0.00 | 86 | 1021.8 |
| 20260510061547 | 60 | 76 | 0.0 | 0.0 | 0.00 | 0.00 | 0.00 | 86 | 1022.0 |
| 20260510060046 | 59 | 76 | 0.0 | 0.0 | 0.00 | 0.00 | 0.00 | 85 | 1021.9 |
| 20260510054543 | 59 | 76 | 0.0 | 0.0 | 0.00 | 0.00 | 0.00 | 86 | 1021.9 |
| 20260510053041 | 59 | 76 | 0.0 | 0.0 | 0.00 | 0.00 | 0.00 | 85 | 1021.7 |
| 20260510051539 | 59 | 111 | 0.0 | 0.0 | 0.00 | 0.00 | 0.00 | 85 | 1021.6 |
| 20260510050038 | 59 | 111 | 0.0 | 0.0 | 0.00 | 0.00 | 0.00 | 85 | 1021.4 |
| 20260510044538 | 59 | 111 | 0.0 | 0.0 | 0.00 | 0.00 | 0.00 | 84 | 1021.3 |
| 20260510043035 | 59 | 111 | 0.0 | 0.0 | 0.00 | 0.00 | 0.00 | 84 | 1021.2 |
| 20260510041536 | 59 | 111 | 0.0 | 0.0 | 0.00 | 0.00 | 0.00 | 82 | 1021.3 |
| 20260510040037 | 60 | 111 | 0.0 | 0.0 | 0.00 | 0.00 | 0.00 | 82 | 1021.4 |
| 20260510034533 | 60 | 111 | 0.0 | 0.0 | 0.00 | 0.00 | 0.00 | 80 | 1021.1 |
| 20260510033030 | 61 | 111 | 0.0 | 0.0 | 0.00 | 0.00 | 0.00 | 79 | 1020.7 |
| 20260510031529 | 61 | 111 | 0.0 | 0.0 | 0.00 | 0.00 | 0.00 | 77 | 1020.5 |
| 20260510030028 | 62 | 111 | 0.0 | 0.0 | 0.00 | 0.00 | 0.00 | 74 | 1020.4 |
| 20260510024528 | 63 | 111 | 0.0 | 0.0 | 0.00 | 0.00 | 0.00 | 72 | 1020.0 |
| 20260510023030 | 64 | 111 | 0.0 | 0.0 | 0.00 | 0.00 | 0.00 | 67 | 1019.7 |
| 20260510021530 | 65 | 111 | 0.0 | 0.0 | 0.00 | 0.00 | 0.00 | 63 | 1019.3 |
| 20260510020026 | 67 | 112 | 0.0 | 0.0 | 0.00 | 0.00 | 0.00 | 59 | 1019.0 |
| 20260510014525 | 69 | 111 | 0.0 | 0.0 | 0.00 | 0.00 | 0.00 | 55 | 1018.6 |
| 20260510013025 | 71 | 111 | 0.0 | 0.0 | 0.00 | 0.00 | 0.00 | 52 | 1018.3 |
| 20260510011524 | 74 | 111 | 0.0 | 0.0 | 0.00 | 0.00 | 0.00 | 49 | 1018.2 |
| 20260510010023 | 76 | 111 | 0.0 | 1.7 | 0.00 | 0.00 | 0.00 | 44 | 1017.9 |
| 20260510004524 | 77 | 101 | 0.0 | 1.7 | 0.00 | 0.03 | 0.00 | 42 | 1017.7 |
| 20260510003022 | 78 | 94 | 0.0 | 0.9 | 0.00 | 0.03 | 0.00 | 41 | 1017.7 |
| 20260510001521 | 80 | 167 | 0.0 | 2.6 | 0.00 | 0.03 | 0.00 | 39 | 1017.7 |
| 20260510000025 | 82 | 231 | 0.0 | 1.7 | 0.00 | 0.03 | 0.00 | 39 | 1017.7 |
| 20260509234534 | 83 | 219 | 0.0 | 2.6 | 0.00 | 0.03 | 0.00 | 39 | 1017.8 |
| 20260509233017 | 85 | 157 | 0.0 | 0.9 | 0.00 | 0.03 | 0.00 | 38 | 1017.8 |
| 20260509231517 | 85 | 262 | 0.0 | 1.7 | 0.00 | 0.03 | 0.00 | 38 | 1017.9 |
| 20260509230014 | 84 | 244 | 0.9 | 3.5 | 0.00 | 0.03 | 0.00 | 38 | 1017.9 |
| 20260509224527 | 83 | 226 | 0.0 | 0.9 | 0.00 | 0.03 | 0.00 | 38 | 1018.0 |
| 20260509223012 | 81 | 27 | 0.0 | 0.0 | 0.00 | 0.03 | 0.00 | 43 | 1018.1 |
| 20260509221512 | 80 | 27 | 0.0 | 1.7 | 0.00 | 0.03 | 0.00 | 42 | 1018.1 |
| 20260509220010 | 83 | 103 | 0.0 | 1.7 | 0.00 | 0.03 | 0.00 | 38 | 1018.0 |
| 20260509214508 | 84 | 48 | 0.0 | 2.6 | 0.00 | 0.03 | 0.00 | 36 | 1018.0 |
| 20260509213008 | 83 | 54 | 0.9 | 3.5 | 0.00 | 0.03 | 0.00 | 37 | 1018.1 |
| 20260509211508 | 82 | 139 | 0.0 | 4.3 | 0.00 | 0.03 | 0.00 | 40 | 1018.3 |
| 20260509210004 | 81 | 16 | 0.0 | 4.3 | 0.00 | 0.03 | 0.00 | 39 | 1018.7 |
| 20260509204504 | 81 | 35 | 0.0 | 2.6 | 0.00 | 0.03 | 0.00 | 40 | 1018.8 |
| 20260509203002 | 82 | 13 | 0.0 | 2.6 | 0.00 | 0.03 | 0.00 | 44 | 1019.0 |
| 20260509201501 | 83 | 58 | 0.0 | 3.5 | 0.00 | 0.03 | 0.00 | 39 | 1019.0 |
| 20260509200100 | 84 | 58 | 1.7 | 4.3 | 0.00 | 0.03 | 0.00 | 37 | 1019.0 |
| 20260509194558 | 82 | 330 | 0.0 | 4.3 | 0.00 | 0.03 | 0.00 | 42 | 1019.0 |
| 20260509193057 | 82 | 71 | 0.9 | 3.5 | 0.00 | 0.03 | 0.00 | 42 | 1019.1 |
| 20260509191557 | 82 | 54 | 0.0 | 3.5 | 0.00 | 0.03 | 0.00 | 44 | 1019.3 |
| 20260509190056 | 84 | 15 | 0.0 | 2.6 | 0.00 | 0.03 | 0.00 | 43 | 1019.4 |
| 20260509184552 | 81 | 221 | 0.0 | 3.5 | 0.00 | 0.03 | 0.00 | 44 | 1019.4 |
| 20260509183052 | 80 | 231 | 0.0 | 3.5 | 0.00 | 0.03 | 0.00 | 45 | 1019.4 |
| 20260509181606 | 81 | 118 | 0.0 | 2.6 | 0.00 | 0.03 | 0.00 | 43 | 1019.6 |
| 20260509180110 | 80 | 141 | 1.7 | 3.5 | 0.00 | 0.03 | 0.00 | 44 | 1019.6 |
| 20260509174546 | 80 | 50 | 1.7 | 3.5 | 0.00 | 0.03 | 0.00 | 42 | 1019.8 |
| 20260509173056 | 80 | 137 | 0.0 | 2.6 | 0.00 | 0.03 | 0.00 | 46 | 1019.9 |
| 20260509171551 | 80 | 268 | 0.0 | 2.6 | 0.00 | 0.03 | 0.00 | 48 | 1020.1 |
| 20260509170050 | 79 | 137 | 0.0 | 1.7 | 0.00 | 0.03 | 0.00 | 50 | 1020.0 |
| 20260509164538 | 79 | 113 | 0.0 | 3.5 | 0.00 | 0.03 | 0.00 | 55 | 1019.9 |
| 20260509163037 | 77 | 202 | 0.0 | 3.5 | 0.00 | 0.03 | 0.00 | 56 | 1020.1 |
| 20260509161541 | 77 | 246 | 0.0 | 3.5 | 0.00 | 0.03 | 0.00 | 61 | 1020.2 |
| 20260509144529 | 70 | 210 | 0.0 | 1.7 | 0.00 | 0.03 | 0.00 | 74 | 1020.3 |
| 20260509143025 | 69 | 151 | 0.0 | 1.7 | 0.00 | 0.03 | 0.00 | 76 | 1020.1 |
| 20260509141537 | 68 | 266 | 0.0 | 1.7 | 0.00 | 0.03 | 0.00 | 78 | 1020.3 |
| 20260509140022 | 68 | 220 | 0.0 | 0.9 | 0.00 | 0.03 | 0.00 | 79 | 1020.1 |
| 20260509134527 | 64 | 34 | 0.0 | 0.9 | 0.00 | 0.03 | 0.00 | 82 | 1019.8 |
| 20260509133013 | 62 | 244 | 0.0 | 0.0 | 0.00 | 0.03 | 0.00 | 84 | 1019.9 |
| 20260509131509 | 58 | 244 | 0.0 | 0.9 | 0.00 | 0.03 | 0.00 | 92 | 1019.7 |
| 20260509130008 | 54 | 244 | 0.0 | 0.0 | 0.00 | 0.03 | 0.00 | 96 | 1019.7 |
| 20260509124506 | 52 | 244 | 0.0 | 0.0 | 0.00 | 0.03 | 0.00 | 96 | 1019.7 |
| 20260509123012 | 51 | 244 | 0.0 | 0.0 | 0.00 | 0.03 | 0.00 | 96 | 1019.7 |
| 20260509121504 | 50 | 244 | 0.0 | 0.0 | 0.00 | 0.03 | 0.00 | 96 | 1019.4 |
| 20260509120011 | 49 | 244 | 0.0 | 0.0 | 0.00 | 0.03 | 0.00 | 95 | 1019.3 |
| 20260509114503 | 48 | 244 | 0.0 | 0.0 | 0.00 | 0.03 | 0.00 | 95 | 1019.2 |
| 20260509113002 | 49 | 244 | 0.0 | 0.0 | 0.00 | 0.03 | 0.00 | 95 | 1019.1 |
| 20260509111613 | 49 | 244 | 0.0 | 0.0 | 0.00 | 0.03 | 0.00 | 94 | 1018.9 |
| 20260509110059 | 49 | 244 | 0.0 | 0.0 | 0.00 | 0.03 | 0.00 | 94 | 1018.7 |
| 20260509104610 | 49 | 244 | 0.0 | 0.0 | 0.00 | 0.03 | 0.00 | 94 | 1018.6 |
| 20260509103110 | 50 | 244 | 0.0 | 0.0 | 0.00 | 0.03 | 0.00 | 94 | 1018.5 |
| 20260509101556 | 50 | 244 | 0.0 | 0.0 | 0.00 | 0.03 | 0.00 | 94 | 1018.4 |
| 20260509100051 | 50 | 244 | 0.0 | 0.0 | 0.00 | 0.03 | 0.00 | 93 | 1018.4 |
| 20260509094549 | 51 | 244 | 0.0 | 0.0 | 0.00 | 0.03 | 0.00 | 93 | 1018.6 |
| 20260509093047 | 51 | 244 | 0.0 | 0.0 | 0.00 | 0.03 | 0.00 | 93 | 1018.7 |
| 20260509091546 | 52 | 244 | 0.0 | 0.0 | 0.00 | 0.03 | 0.00 | 92 | 1018.8 |
| 20260509090052 | 52 | 244 | 0.0 | 0.0 | 0.00 | 0.03 | 0.00 | 91 | 1018.8 |
| 20260509084540 | 53 | 244 | 0.0 | 0.0 | 0.00 | 0.03 | 0.00 | 91 | 1018.9 |